Time;durP1;ratioP1;P1;durP2;ratioP2;P2;SDS_P1;SDS_P2;PMS_P1;PMS_P2;Temp;Humidity;BMP_temperature;BMP_pressure;BME280_temperature;BME280_humidity;BME280_pressure;Samples;Min_cycle;Max_cycle;Signal;HPM_P1;HPM_P2
2023/06/03 00:01:04;;;;;;;;;;;9.50;49.70;;;;;;4107676;28;19960;-85
2023/06/03 00:03:24;;;;;;;;;;;9.50;49.90;;;;;;4104507;28;19984;-84
2023/06/03 00:05:45;;;;;;;;;;;9.50;50.10;;;;;;4095413;28;19918;-85
2023/06/03 00:08:06;;;;;;;;;;;9.40;50.00;;;;;;4110459;28;20024;-85
2023/06/03 00:10:27;;;;;;;;;;;9.40;50.00;;;;;;4094465;28;19923;-84
2023/06/03 00:12:48;;;;;;;;;;;9.30;49.90;;;;;;4105186;28;19914;-86
2023/06/03 00:15:09;;;;;;;;;;;9.30;49.70;;;;;;4109746;28;20608;-84
2023/06/03 00:17:31;;;;;;;;;;;9.30;50.00;;;;;;4108614;28;19918;-84
2023/06/03 00:19:53;;;;;;;;;;;9.20;50.00;;;;;;4105393;28;20016;-84
2023/06/03 00:22:14;;;;;;;;;;;9.20;50.30;;;;;;4105933;28;19926;-85
2023/06/03 00:24:34;;;;;;;;;;;9.10;50.50;;;;;;4106730;28;20400;-82
2023/06/03 00:26:55;;;;;;;;;;;9.20;50.20;;;;;;4107558;28;19919;-84
2023/06/03 00:29:16;;;;;;;;;;;9.10;50.50;;;;;;4107903;28;19918;-81
2023/06/03 00:31:37;;;;;;;;;;;9.00;50.50;;;;;;4088745;28;19929;-85
2023/06/03 00:33:58;;;;;;;;;;;9.00;50.30;;;;;;4105184;28;19933;-85
2023/06/03 00:36:18;;;;;;;;;;;9.00;50.40;;;;;;4096861;28;20394;-84
2023/06/03 00:38:39;;;;;;;;;;;8.90;50.10;;;;;;4096975;28;19918;-84
2023/06/03 00:41:00;;;;;;;;;;;8.90;50.50;;;;;;4092013;28;19918;-85
2023/06/03 00:43:21;;;;;;;;;;;8.80;50.80;;;;;;4104169;28;19918;-82
2023/06/03 00:45:42;;;;;;;;;;;8.80;50.80;;;;;;4108120;28;20475;-83
2023/06/03 00:48:02;;;;;;;;;;;8.80;50.90;;;;;;4105875;28;19922;-85
2023/06/03 00:50:23;;;;;;;;;;;8.80;51.20;;;;;;4098187;28;19979;-85
2023/06/03 00:52:46;;;;;;;;;;;8.70;51.30;;;;;;4108736;28;19914;-83
2023/06/03 00:55:07;;;;;;;;;;;8.60;50.90;;;;;;4106447;28;19922;-85
2023/06/03 00:57:27;;;;;;;;;;;8.60;50.90;;;;;;4108249;28;19922;-85
2023/06/03 00:59:48;;;;;;;;;;;8.60;50.80;;;;;;4109738;28;19929;-84
2023/06/03 01:02:10;;;;;;;;;;;8.50;51.10;;;;;;4102387;28;19928;-83
2023/06/03 01:04:31;;;;;;;;;;;8.60;51.00;;;;;;4105406;28;19922;-85
2023/06/03 01:07:11;;;;;;;;;;;8.40;51.20;;;;;;4093232;28;20454;-83
2023/06/03 01:09:50;;;;;;;;;;;8.40;51.40;;;;;;4103371;28;19918;-82
2023/06/03 01:12:22;;;;;;;;;;;8.40;51.50;;;;;;4107274;28;19914;-82
2023/06/03 01:14:42;;;;;;;;;;;8.40;51.30;;;;;;4105591;28;19999;-82
2023/06/03 01:17:09;;;;;;;;;;;8.30;51.40;;;;;;4110526;28;19918;-82
2023/06/03 01:19:36;;;;;;;;;;;8.30;51.70;;;;;;4107358;28;20354;-85
2023/06/03 01:22:00;;;;;;;;;;;8.30;51.80;;;;;;4109861;28;19925;-83
2023/06/03 01:24:24;;;;;;;;;;;8.20;51.90;;;;;;4105606;28;20009;-83
2023/06/03 01:26:45;;;;;;;;;;;8.20;51.90;;;;;;4108112;28;19918;-83
2023/06/03 01:29:06;;;;;;;;;;;8.30;52.10;;;;;;4093425;28;20003;-84
2023/06/03 01:31:26;;;;;;;;;;;8.10;52.00;;;;;;4098783;28;19922;-85
2023/06/03 01:33:47;;;;;;;;;;;8.10;52.30;;;;;;4107472;28;20393;-83
2023/06/03 01:36:08;;;;;;;;;;;8.10;52.00;;;;;;4103983;28;19914;-85
2023/06/03 01:38:29;;;;;;;;;;;8.10;52.20;;;;;;4107580;28;19926;-85
2023/06/03 01:40:51;;;;;;;;;;;8.10;52.70;;;;;;4106127;28;20341;-83
2023/06/03 01:43:12;;;;;;;;;;;8.00;52.60;;;;;;4092153;28;19925;-84
2023/06/03 01:45:33;;;;;;;;;;;8.10;52.70;;;;;;4104449;28;19929;-85
2023/06/03 01:47:54;;;;;;;;;;;8.00;52.60;;;;;;4110322;28;19918;-85
2023/06/03 01:50:17;;;;;;;;;;;8.00;52.70;;;;;;4089859;28;19922;-84
2023/06/03 01:52:38;;;;;;;;;;;7.90;52.80;;;;;;4096721;28;19990;-83
2023/06/03 01:54:59;;;;;;;;;;;8.00;52.90;;;;;;4097186;28;19923;-82
2023/06/03 01:57:20;;;;;;;;;;;7.90;52.90;;;;;;4098193;28;19922;-84
2023/06/03 01:59:41;;;;;;;;;;;7.80;52.90;;;;;;4093091;28;20435;-84
2023/06/03 02:02:02;;;;;;;;;;;7.80;52.90;;;;;;4095644;28;19997;-84
2023/06/03 02:04:23;;;;;;;;;;;7.80;52.90;;;;;;4105052;28;19918;-84
2023/06/03 02:06:55;;;;;;;;;;;7.80;52.90;;;;;;4104799;28;19922;-83
2023/06/03 02:09:16;;;;;;;;;;;7.70;52.90;;;;;;4104588;28;19929;-84
2023/06/03 02:11:37;;;;;;;;;;;7.70;52.90;;;;;;4091776;28;19945;-83
2023/06/03 02:13:58;;;;;;;;;;;7.60;53.20;;;;;;4107928;28;19923;-82
2023/06/03 02:16:20;;;;;;;;;;;7.60;53.30;;;;;;4095045;28;19922;-84
2023/06/03 02:18:42;;;;;;;;;;;7.60;53.80;;;;;;4096101;28;20146;-85
2023/06/03 02:21:03;;;;;;;;;;;7.60;53.20;;;;;;4106490;28;20437;-84
2023/06/03 02:23:23;;;;;;;;;;;7.60;53.20;;;;;;4095661;28;19918;-84
2023/06/03 02:25:44;;;;;;;;;;;7.50;53.30;;;;;;4105779;28;19918;-84
2023/06/03 02:28:07;;;;;;;;;;;7.50;53.40;;;;;;4110333;28;20193;-83
2023/06/03 02:30:28;;;;;;;;;;;7.50;53.50;;;;;;4105839;28;19972;-86
2023/06/03 02:32:49;;;;;;;;;;;7.50;53.50;;;;;;4109089;28;19922;-82
2023/06/03 02:35:10;;;;;;;;;;;7.50;53.30;;;;;;4101039;28;19918;-83
2023/06/03 02:37:31;;;;;;;;;;;7.40;53.30;;;;;;4108346;28;19918;-84
2023/06/03 02:39:51;;;;;;;;;;;7.40;53.40;;;;;;4105532;28;20017;-83
2023/06/03 02:42:12;;;;;;;;;;;7.40;53.60;;;;;;4103647;28;19918;-84
2023/06/03 02:44:33;;;;;;;;;;;7.30;53.50;;;;;;4103399;28;19918;-83
2023/06/03 02:46:54;;;;;;;;;;;7.40;53.60;;;;;;4091599;28;19914;-84
2023/06/03 02:49:15;;;;;;;;;;;7.30;53.80;;;;;;4104348;28;20512;-86
2023/06/03 02:51:40;;;;;;;;;;;7.30;54.00;;;;;;4104526;28;19945;-82
2023/06/03 02:54:01;;;;;;;;;;;7.30;53.80;;;;;;4098648;28;19943;-81
2023/06/03 02:56:22;;;;;;;;;;;7.20;53.90;;;;;;4104871;28;20506;-85
2023/06/03 02:58:42;;;;;;;;;;;7.20;54.10;;;;;;4107480;28;19918;-82
2023/06/03 03:01:03;;;;;;;;;;;7.20;54.10;;;;;;4100533;28;19922;-85
2023/06/03 03:03:25;;;;;;;;;;;7.30;54.20;;;;;;4103933;28;20705;-82
2023/06/03 03:05:47;;;;;;;;;;;7.20;54.40;;;;;;4102240;28;19924;-84
2023/06/03 03:08:08;;;;;;;;;;;7.10;54.20;;;;;;4086327;28;19919;-83
2023/06/03 03:10:29;;;;;;;;;;;7.10;54.20;;;;;;4102016;28;19930;-84
2023/06/03 03:12:50;;;;;;;;;;;7.10;54.20;;;;;;4108536;28;19925;-84
2023/06/03 03:15:11;;;;;;;;;;;7.10;54.20;;;;;;4107560;28;20446;-80
2023/06/03 03:17:32;;;;;;;;;;;7.10;54.50;;;;;;4106648;28;20005;-83
2023/06/03 03:19:53;;;;;;;;;;;7.10;54.50;;;;;;4102727;28;19918;-85
2023/06/03 03:22:14;;;;;;;;;;;7.00;54.40;;;;;;4095726;28;20079;-84
2023/06/03 03:24:34;;;;;;;;;;;7.00;54.50;;;;;;4103448;28;20004;-82
2023/06/03 03:26:55;;;;;;;;;;;7.10;54.60;;;;;;4105787;28;19968;-83
2023/06/03 03:29:17;;;;;;;;;;;7.10;54.70;;;;;;4092593;28;19922;-82
2023/06/03 03:31:38;;;;;;;;;;;7.00;54.80;;;;;;4105904;28;19914;-84
2023/06/03 03:34:01;;;;;;;;;;;7.00;54.80;;;;;;4105572;28;19922;-84
2023/06/03 03:36:22;;;;;;;;;;;7.00;54.90;;;;;;4107328;28;19922;-84
2023/06/03 03:38:43;;;;;;;;;;;7.00;55.10;;;;;;4105653;28;20014;-85
2023/06/03 03:41:05;;;;;;;;;;;7.00;55.00;;;;;;4104194;28;20017;-82
2023/06/03 03:43:26;;;;;;;;;;;7.00;55.30;;;;;;4089551;28;20017;-84
2023/06/03 03:45:47;;;;;;;;;;;7.10;55.50;;;;;;4104513;28;20282;-83
2023/06/03 03:48:19;;;;;;;;;;;7.00;55.80;;;;;;4096086;28;19925;-85
2023/06/03 03:50:46;;;;;;;;;;;7.00;57.10;;;;;;4110155;28;19932;-83
2023/06/03 03:53:23;;;;;;;;;;;7.00;58.50;;;;;;4097710;28;19918;-83
2023/06/03 03:55:44;;;;;;;;;;;7.10;58.40;;;;;;4111806;28;20107;-85
2023/06/03 03:58:23;;;;;;;;;;;7.10;59.10;;;;;;4100925;28;20034;-84
2023/06/03 04:00:44;;;;;;;;;;;7.10;60.00;;;;;;4114217;28;19918;-84
2023/06/03 04:03:05;;;;;;;;;;;7.30;61.00;;;;;;4107489;28;19922;-85
2023/06/03 04:05:26;;;;;;;;;;;7.30;61.50;;;;;;4111921;28;19949;-86
2023/06/03 04:07:48;;;;;;;;;;;7.40;62.00;;;;;;4096923;28;20046;-84
2023/06/03 04:10:09;;;;;;;;;;;7.40;63.10;;;;;;4106407;28;19933;-84
2023/06/03 04:12:33;;;;;;;;;;;7.60;64.00;;;;;;4109096;28;19972;-83
2023/06/03 04:14:57;;;;;;;;;;;7.70;64.30;;;;;;4110599;28;19922;-83
2023/06/03 04:17:20;;;;;;;;;;;7.70;65.30;;;;;;4098952;28;21313;-81
2023/06/03 04:19:41;;;;;;;;;;;7.80;65.50;;;;;;4107528;28;20242;-83
2023/06/03 04:22:03;;;;;;;;;;;7.90;66.10;;;;;;4092553;28;19930;-85
2023/06/03 04:24:25;;;;;;;;;;;8.10;66.90;;;;;;4100801;28;19989;-83
2023/06/03 04:26:47;;;;;;;;;;;8.20;67.10;;;;;;4096550;28;20113;-85
2023/06/03 04:29:08;;;;;;;;;;;8.40;67.50;;;;;;4105541;28;19959;-83
2023/06/03 04:31:29;;;;;;;;;;;8.50;67.80;;;;;;4106786;28;19921;-83
2023/06/03 04:33:49;;;;;;;;;;;8.60;68.30;;;;;;4108062;28;19922;-83
2023/06/03 04:36:10;;;;;;;;;;;8.80;68.60;;;;;;4106365;28;19925;-85
2023/06/03 04:38:33;;;;;;;;;;;8.90;69.00;;;;;;4108535;28;19921;-83
2023/06/03 04:40:54;;;;;;;;;;;9.10;69.50;;;;;;4092049;28;20453;-84
2023/06/03 04:43:15;;;;;;;;;;;9.30;70.00;;;;;;4107150;28;20410;-83
2023/06/03 04:45:37;;;;;;;;;;;9.40;70.30;;;;;;4103484;28;19922;-84
2023/06/03 04:48:01;;;;;;;;;;;9.60;70.60;;;;;;4101601;28;20062;-84
2023/06/03 04:50:27;;;;;;;;;;;9.90;70.80;;;;;;4104512;28;19930;-84
2023/06/03 04:52:48;;;;;;;;;;;10.00;70.50;;;;;;4104234;28;19918;-84
2023/06/03 04:55:09;;;;;;;;;;;10.10;69.80;;;;;;4106829;28;19922;-85
2023/06/03 04:57:30;;;;;;;;;;;10.30;69.50;;;;;;4096232;28;19929;-85
2023/06/03 04:59:52;;;;;;;;;;;10.50;69.40;;;;;;4109383;28;19958;-84
2023/06/03 05:02:16;;;;;;;;;;;10.60;69.60;;;;;;4106985;28;19926;-85
2023/06/03 05:04:37;;;;;;;;;;;10.80;69.60;;;;;;4108117;28;19949;-83
2023/06/03 05:07:00;;;;;;;;;;;10.90;69.30;;;;;;4091028;28;19919;-86
2023/06/03 05:09:21;;;;;;;;;;;11.00;69.20;;;;;;4093373;28;19918;-86
2023/06/03 05:11:42;;;;;;;;;;;11.30;69.30;;;;;;4093623;28;19930;-86
2023/06/03 05:14:03;;;;;;;;;;;11.50;68.60;;;;;;4093455;28;20477;-85
2023/06/03 05:16:24;;;;;;;;;;;11.60;67.70;;;;;;4106410;28;20648;-84
2023/06/03 05:18:46;;;;;;;;;;;11.80;67.10;;;;;;4108649;28;19937;-82
2023/06/03 05:21:07;;;;;;;;;;;11.90;66.30;;;;;;4093829;28;19930;-86
2023/06/03 05:23:28;;;;;;;;;;;12.00;65.80;;;;;;4103859;28;19922;-85
2023/06/03 05:25:49;;;;;;;;;;;12.20;65.50;;;;;;4105611;28;20816;-85
2023/06/03 05:28:11;;;;;;;;;;;12.30;65.30;;;;;;4101853;28;19918;-85
2023/06/03 05:30:31;;;;;;;;;;;12.40;65.70;;;;;;4092996;28;19970;-85
2023/06/03 05:32:52;;;;;;;;;;;12.50;65.90;;;;;;4106914;28;19922;-85
2023/06/03 05:35:13;;;;;;;;;;;12.70;65.60;;;;;;4102377;28;19993;-84
2023/06/03 05:37:34;;;;;;;;;;;12.80;64.70;;;;;;4092330;28;19919;-85
2023/06/03 05:39:55;;;;;;;;;;;13.00;64.50;;;;;;4107645;28;19922;-86
2023/06/03 05:42:15;;;;;;;;;;;13.10;64.20;;;;;;4117238;28;20770;-86
2023/06/03 05:44:36;;;;;;;;;;;13.20;64.40;;;;;;4103562;28;19922;-83
2023/06/03 05:46:57;;;;;;;;;;;13.20;64.50;;;;;;4102300;28;19949;-83
2023/06/03 05:49:18;;;;;;;;;;;13.40;64.60;;;;;;4093425;28;19929;-85
2023/06/03 05:51:39;;;;;;;;;;;13.60;63.80;;;;;;4104119;28;19923;-84
2023/06/03 05:54:00;;;;;;;;;;;13.80;63.20;;;;;;4105790;28;19933;-84
2023/06/03 05:56:21;;;;;;;;;;;13.90;62.80;;;;;;4092470;28;19918;-86
2023/06/03 05:58:43;;;;;;;;;;;14.00;61.50;;;;;;4105402;28;20098;-84
2023/06/03 06:01:04;;;;;;;;;;;14.20;59.20;;;;;;4104232;28;19918;-82
2023/06/03 06:03:25;;;;;;;;;;;14.30;58.70;;;;;;4101103;28;20351;-83
2023/06/03 06:05:47;;;;;;;;;;;14.40;55.90;;;;;;4089295;28;20392;-86
2023/06/03 06:08:08;;;;;;;;;;;14.50;54.60;;;;;;4100573;28;20476;-83
2023/06/03 06:10:29;;;;;;;;;;;14.60;55.00;;;;;;4103698;28;20013;-83
2023/06/03 06:12:50;;;;;;;;;;;14.70;54.40;;;;;;4095845;28;19930;-85
2023/06/03 06:15:11;;;;;;;;;;;14.90;53.80;;;;;;4102436;28;19922;-83
2023/06/03 06:17:31;;;;;;;;;;;15.10;50.90;;;;;;4108645;28;19977;-86
2023/06/03 06:19:52;;;;;;;;;;;15.20;51.20;;;;;;4099506;28;20052;-85
2023/06/03 06:22:13;;;;;;;;;;;15.30;51.40;;;;;;4091241;28;20723;-85
2023/06/03 06:24:36;;;;;;;;;;;15.40;52.00;;;;;;4083286;28;19957;-85
2023/06/03 06:26:56;;;;;;;;;;;15.50;50.10;;;;;;4098784;28;19922;-87
2023/06/03 06:29:17;;;;;;;;;;;15.60;48.50;;;;;;4084490;28;19918;-84
2023/06/03 06:31:38;;;;;;;;;;;15.80;48.70;;;;;;4092720;28;19954;-85
2023/06/03 06:33:59;;;;;;;;;;;15.90;49.70;;;;;;4104030;28;19992;-84
2023/06/03 06:36:27;;;;;;;;;;;16.10;47.00;;;;;;4099259;28;19941;-86
2023/06/03 06:38:48;;;;;;;;;;;16.20;48.60;;;;;;4094153;28;19933;-87
2023/06/03 06:41:12;;;;;;;;;;;16.20;47.80;;;;;;4099679;28;19927;-85
2023/06/03 06:43:33;;;;;;;;;;;16.40;48.90;;;;;;4098984;28;19952;-86
2023/06/03 06:45:55;;;;;;;;;;;16.50;47.20;;;;;;4087984;28;19934;-86
2023/06/03 06:48:16;;;;;;;;;;;16.50;46.20;;;;;;4100275;28;19945;-86
2023/06/03 06:50:46;;;;;;;;;;;16.60;47.20;;;;;;4088900;28;19933;-84
2023/06/03 06:53:07;;;;;;;;;;;16.70;45.50;;;;;;4083127;28;20010;-86
2023/06/03 06:55:52;;;;;;;;;;;16.90;46.30;;;;;;4098962;28;20509;-87
2023/06/03 06:58:13;;;;;;;;;;;16.90;46.10;;;;;;4087598;28;19926;-84
2023/06/03 07:00:34;;;;;;;;;;;17.00;40.50;;;;;;4102288;28;19922;-85
2023/06/03 07:02:55;;;;;;;;;;;17.10;43.90;;;;;;4085258;28;20425;-87
2023/06/03 07:05:16;;;;;;;;;;;17.20;39.40;;;;;;4089551;28;20388;-86
2023/06/03 07:07:36;;;;;;;;;;;17.20;37.50;;;;;;4082908;28;20522;-88
2023/06/03 07:09:57;;;;;;;;;;;17.30;39.00;;;;;;4096256;28;19925;-83
2023/06/03 07:12:18;;;;;;;;;;;17.40;42.40;;;;;;4097976;28;19922;-84
2023/06/03 07:14:39;;;;;;;;;;;17.50;42.40;;;;;;4105121;28;20619;-85
2023/06/03 07:17:00;;;;;;;;;;;17.50;42.90;;;;;;4103627;28;19922;-86
2023/06/03 07:19:24;;;;;;;;;;;17.60;42.80;;;;;;4087118;28;19925;-84
2023/06/03 07:21:45;;;;;;;;;;;17.70;42.70;;;;;;4103743;28;20271;-85
2023/06/03 07:24:10;;;;;;;;;;;17.80;43.30;;;;;;4104592;28;19922;-85
2023/06/03 07:26:33;;;;;;;;;;;17.80;42.60;;;;;;4095400;28;19949;-84
2023/06/03 07:28:57;;;;;;;;;;;17.90;40.40;;;;;;4108590;28;19914;-85
2023/06/03 07:31:18;;;;;;;;;;;18.00;39.00;;;;;;4107135;28;19917;-84
2023/06/03 07:33:48;;;;;;;;;;;18.10;40.40;;;;;;4090184;28;20366;-88
2023/06/03 07:36:12;;;;;;;;;;;18.20;42.00;;;;;;4085742;28;19927;-85
2023/06/03 07:38:49;;;;;;;;;;;18.30;41.00;;;;;;4096727;28;20010;-86
2023/06/03 07:41:10;;;;;;;;;;;18.30;38.20;;;;;;4101903;28;19925;-85
2023/06/03 07:43:32;;;;;;;;;;;18.40;39.10;;;;;;4107408;28;20019;-84
2023/06/03 07:45:56;;;;;;;;;;;18.50;41.50;;;;;;4101857;28;19926;-86
2023/06/03 07:48:17;;;;;;;;;;;18.60;35.10;;;;;;4105139;28;20382;-86
2023/06/03 07:50:38;;;;;;;;;;;18.70;39.80;;;;;;4106199;28;19918;-85
2023/06/03 07:53:00;;;;;;;;;;;18.80;40.40;;;;;;4106997;28;19937;-84
2023/06/03 07:55:21;;;;;;;;;;;18.80;34.20;;;;;;4107416;28;20369;-87
2023/06/03 07:58:02;;;;;;;;;;;18.90;39.00;;;;;;4111048;28;20078;-86
2023/06/03 08:00:23;;;;;;;;;;;18.90;40.00;;;;;;4112180;28;20381;-86
2023/06/03 08:02:44;;;;;;;;;;;19.00;39.10;;;;;;4109282;28;19921;-84
2023/06/03 08:05:05;;;;;;;;;;;19.10;40.10;;;;;;4109621;28;19922;-85
2023/06/03 08:07:29;;;;;;;;;;;19.10;39.40;;;;;;4096907;28;19995;-86
2023/06/03 08:09:50;;;;;;;;;;;19.20;37.10;;;;;;4099080;28;20156;-86
2023/06/03 08:12:11;;;;;;;;;;;19.20;36.40;;;;;;4113488;28;19918;-86
2023/06/03 08:14:36;;;;;;;;;;;19.30;35.00;;;;;;4111960;28;19914;-86
2023/06/03 08:17:01;;;;;;;;;;;19.30;37.20;;;;;;4108116;28;19925;-87
2023/06/03 08:19:22;;;;;;;;;;;19.40;38.10;;;;;;4108470;28;19938;-86
2023/06/03 08:21:44;;;;;;;;;;;19.40;33.80;;;;;;4097845;28;19938;-86
2023/06/03 08:24:05;;;;;;;;;;;19.50;35.50;;;;;;4105098;28;20164;-87
2023/06/03 08:26:26;;;;;;;;;;;19.50;36.80;;;;;;4102403;28;20042;-84
2023/06/03 08:29:10;;;;;;;;;;;19.60;36.20;;;;;;4096466;28;19922;-84
2023/06/03 08:31:32;;;;;;;;;;;19.60;37.30;;;;;;4049205;29;19920;-86
2023/06/03 08:33:53;;;;;;;;;;;19.70;38.20;;;;;;4051904;29;19920;-86
2023/06/03 08:36:20;;;;;;;;;;;19.80;32.10;;;;;;4037337;29;19934;-85
2023/06/03 08:38:41;;;;;;;;;;;19.70;31.40;;;;;;4049772;29;19990;-85
2023/06/03 08:41:02;;;;;;;;;;;19.80;34.00;;;;;;4048017;29;20595;-87
2023/06/03 08:43:26;;;;;;;;;;;19.80;35.40;;;;;;4049779;29;19926;-86
2023/06/03 08:46:00;;;;;;;;;;;19.90;34.60;;;;;;4041913;29;19920;-84
2023/06/03 08:48:37;;;;;;;;;;;19.90;36.00;;;;;;4058131;29;19919;-85
2023/06/03 08:51:04;;;;;;;;;;;20.00;36.40;;;;;;4045503;29;19924;-85
2023/06/03 08:53:25;;;;;;;;;;;20.00;35.60;;;;;;4049049;29;19922;-83
2023/06/03 08:55:53;;;;;;;;;;;20.10;35.70;;;;;;4046451;29;19916;-85
2023/06/03 08:58:30;;;;;;;;;;;20.00;35.60;;;;;;4047587;29;20324;-87
2023/06/03 09:01:03;;;;;;;;;;;20.10;34.80;;;;;;4043199;29;20707;-84
2023/06/03 09:03:25;;;;;;;;;;;20.10;34.70;;;;;;4046471;29;19920;-85
2023/06/03 09:05:46;;;;;;;;;;;20.00;34.30;;;;;;4032874;29;19916;-84
2023/06/03 09:08:08;;;;;;;;;;;20.10;34.60;;;;;;4053903;28;19938;-84
2023/06/03 09:10:30;;;;;;;;;;;20.00;33.60;;;;;;4112293;28;19993;-83
2023/06/03 09:12:54;;;;;;;;;;;20.10;30.50;;;;;;4112875;28;20809;-83
2023/06/03 09:15:15;;;;;;;;;;;20.10;32.10;;;;;;4111159;28;20005;-84
2023/06/03 09:17:36;;;;;;;;;;;20.10;34.10;;;;;;4110735;28;19944;-84
2023/06/03 09:19:59;;;;;;;;;;;20.10;33.90;;;;;;4109495;28;19918;-83
2023/06/03 09:22:32;;;;;;;;;;;20.20;33.10;;;;;;4096892;28;19950;-83
2023/06/03 09:25:22;;;;;;;;;;;20.20;33.70;;;;;;4109369;28;19921;-85
2023/06/03 09:27:43;;;;;;;;;;;20.20;34.10;;;;;;4060073;29;19926;-84
2023/06/03 09:30:05;;;;;;;;;;;20.20;34.10;;;;;;4062333;29;19919;-84
2023/06/03 09:32:26;;;;;;;;;;;20.20;34.40;;;;;;4062045;29;19970;-84
2023/06/03 09:34:48;;;;;;;;;;;20.20;33.70;;;;;;4062869;29;19935;-83
2023/06/03 09:37:09;;;;;;;;;;;20.20;32.60;;;;;;4064592;29;20086;-80
2023/06/03 09:39:33;;;;;;;;;;;20.20;32.90;;;;;;4063992;29;20340;-84
2023/06/03 09:41:54;;;;;;;;;;;20.20;32.90;;;;;;4063037;29;20415;-84
2023/06/03 09:44:15;;;;;;;;;;;20.20;32.80;;;;;;4061199;29;19919;-84
2023/06/03 09:46:36;;;;;;;;;;;20.20;33.00;;;;;;4058841;29;20147;-83
2023/06/03 09:49:10;;;;;;;;;;;20.20;32.20;;;;;;4062014;29;20645;-84
2023/06/03 09:51:41;;;;;;;;;;;20.20;32.90;;;;;;4062520;29;19919;-85
2023/06/03 09:54:08;;;;;;;;;;;20.20;32.90;;;;;;4055612;29;19923;-84
2023/06/03 09:56:29;;;;;;;;;;;20.30;32.70;;;;;;4060926;29;20069;-87
2023/06/03 09:58:51;;;;;;;;;;;20.30;33.90;;;;;;4062506;29;20285;-83
2023/06/03 10:01:12;;;;;;;;;;;20.30;33.70;;;;;;4046854;29;20014;-82
2023/06/03 10:03:33;;;;;;;;;;;20.40;33.90;;;;;;4071625;28;19929;-85
2023/06/03 10:05:54;;;;;;;;;;;20.40;33.40;;;;;;4105612;28;19957;-83
2023/06/03 10:08:26;;;;;;;;;;;20.40;30.70;;;;;;4107584;28;20266;-85
2023/06/03 10:10:55;;;;;;;;;;;20.40;32.30;;;;;;4094640;28;19995;-85
2023/06/03 10:13:19;;;;;;;;;;;20.50;33.10;;;;;;4109263;28;19981;-85
2023/06/03 10:15:40;;;;;;;;;;;20.50;32.80;;;;;;4106046;28;20336;-84
2023/06/03 10:18:01;;;;;;;;;;;20.50;33.10;;;;;;4109743;28;20163;-85
2023/06/03 10:20:35;;;;;;;;;;;20.50;31.80;;;;;;4110931;28;19918;-83
2023/06/03 10:22:56;;;;;;;;;;;20.60;31.80;;;;;;4107975;28;19958;-85
2023/06/03 10:25:17;;;;;;;;;;;20.50;29.30;;;;;;4098409;28;19918;-85
2023/06/03 10:27:38;;;;;;;;;;;20.50;29.40;;;;;;4108169;28;19922;-86
2023/06/03 10:29:59;;;;;;;;;;;20.60;31.20;;;;;;4103550;28;20233;-84
2023/06/03 10:32:22;;;;;;;;;;;20.60;31.60;;;;;;4107898;28;20437;-85
2023/06/03 10:34:44;;;;;;;;;;;20.60;30.20;;;;;;4107888;28;19926;-85
2023/06/03 10:37:05;;;;;;;;;;;20.60;30.90;;;;;;4097720;28;19919;-85
2023/06/03 10:39:27;;;;;;;;;;;20.60;30.60;;;;;;4109342;28;20188;-86
2023/06/03 10:41:48;;;;;;;;;;;20.60;30.40;;;;;;4111743;28;20005;-85
2023/06/03 10:44:09;;;;;;;;;;;20.60;31.50;;;;;;4105997;28;20652;-84
2023/06/03 10:46:32;;;;;;;;;;;20.60;31.60;;;;;;4096255;28;19929;-85
2023/06/03 10:48:53;;;;;;;;;;;20.60;31.60;;;;;;4110941;28;19926;-86
2023/06/03 10:51:37;;;;;;;;;;;20.80;32.20;;;;;;4109910;28;19918;-84
2023/06/03 10:54:14;;;;;;;;;;;20.70;30.50;;;;;;4115168;28;20261;-86
2023/06/03 10:56:38;;;;;;;;;;;20.80;31.20;;;;;;4104311;28;19918;-84
2023/06/03 10:59:03;;;;;;;;;;;20.80;31.10;;;;;;4104120;28;19961;-85
2023/06/03 11:01:43;;;;;;;;;;;20.90;30.20;;;;;;4116561;28;19960;-84
2023/06/03 11:04:07;;;;;;;;;;;21.00;31.30;;;;;;4099005;28;19922;-85
2023/06/03 11:06:28;;;;;;;;;;;21.00;30.70;;;;;;4112017;28;19925;-85
2023/06/03 11:09:01;;;;;;;;;;;21.00;29.40;;;;;;4098246;28;19918;-83
2023/06/03 11:11:40;;;;;;;;;;;21.00;29.00;;;;;;4114345;28;19918;-85
2023/06/03 11:14:01;;;;;;;;;;;21.00;29.80;;;;;;4097131;28;19923;-85
2023/06/03 11:16:22;;;;;;;;;;;20.90;29.70;;;;;;4111461;28;20007;-85
2023/06/03 11:18:43;;;;;;;;;;;20.90;30.40;;;;;;4113598;28;19914;-86
2023/06/03 11:21:04;;;;;;;;;;;20.90;30.60;;;;;;4116477;28;19922;-83
2023/06/03 11:23:40;;;;;;;;;;;20.80;30.20;;;;;;4100720;28;21492;-85
2023/06/03 11:26:37;;;;;;;;;;;20.80;29.90;;;;;;4109211;28;19925;-85
2023/06/03 11:28:58;;;;;;;;;;;20.80;29.90;;;;;;4078998;29;19939;-86
2023/06/03 11:31:20;;;;;;;;;;;20.80;30.20;;;;;;4071353;29;20581;-83
2023/06/03 11:34:00;;;;;;;;;;;20.80;30.50;;;;;;4079094;29;19950;-85
2023/06/03 11:36:40;;;;;;;;;;;20.70;30.60;;;;;;4080439;29;19973;-85
2023/06/03 11:39:01;;;;;;;;;;;20.70;29.70;;;;;;4080926;29;19934;-85
2023/06/03 11:41:40;;;;;;;;;;;20.70;30.50;;;;;;4066223;29;20006;-85
2023/06/03 11:44:19;;;;;;;;;;;20.70;30.20;;;;;;4085540;29;19919;-86
2023/06/03 11:46:50;;;;;;;;;;;20.70;30.90;;;;;;4069118;28;19966;-86
2023/06/03 11:49:11;;;;;;;;;;;20.70;31.40;;;;;;4083115;29;19990;-84
2023/06/03 11:51:32;;;;;;;;;;;20.60;31.20;;;;;;4088556;29;19922;-85
2023/06/03 11:53:54;;;;;;;;;;;20.60;31.60;;;;;;4089199;29;19918;-83
2023/06/03 11:56:14;;;;;;;;;;;20.60;31.60;;;;;;4068167;29;19971;-84
2023/06/03 11:58:36;;;;;;;;;;;20.70;31.40;;;;;;4071910;29;19926;-84
2023/06/03 12:01:06;;;;;;;;;;;20.60;31.30;;;;;;4077261;29;19915;-83
2023/06/03 12:03:27;;;;;;;;;;;20.60;30.20;;;;;;4092388;28;20003;-84
2023/06/03 12:05:55;;;;;;;;;;;20.60;30.00;;;;;;4112151;28;20386;-84
2023/06/03 12:08:16;;;;;;;;;;;20.60;30.30;;;;;;4105254;28;19919;-85
2023/06/03 12:10:40;;;;;;;;;;;20.60;30.00;;;;;;4099208;28;19991;-84
2023/06/03 12:13:01;;;;;;;;;;;20.60;30.50;;;;;;4096128;28;19918;-84
2023/06/03 12:15:23;;;;;;;;;;;20.70;30.80;;;;;;4108838;28;19926;-84
2023/06/03 12:17:44;;;;;;;;;;;20.70;31.40;;;;;;4108278;28;19918;-87
2023/06/03 12:20:05;;;;;;;;;;;20.70;31.50;;;;;;4099499;28;19919;-82
2023/06/03 12:22:27;;;;;;;;;;;20.70;30.10;;;;;;4108427;28;19929;-86
2023/06/03 12:24:48;;;;;;;;;;;20.70;30.50;;;;;;4103353;28;20430;-85
2023/06/03 12:27:13;;;;;;;;;;;20.80;30.60;;;;;;4107801;28;19925;-86
2023/06/03 12:29:40;;;;;;;;;;;20.70;30.00;;;;;;4097350;28;19918;-85
2023/06/03 12:32:01;;;;;;;;;;;20.80;31.50;;;;;;4104617;28;19969;-84
2023/06/03 12:34:29;;;;;;;;;;;20.70;30.90;;;;;;4104972;28;19922;-86
2023/06/03 12:36:49;;;;;;;;;;;20.80;31.10;;;;;;4108333;28;19960;-85
2023/06/03 12:39:10;;;;;;;;;;;20.80;32.60;;;;;;4100916;28;19945;-85
2023/06/03 12:41:31;;;;;;;;;;;20.70;31.40;;;;;;4102706;28;20334;-85
2023/06/03 12:43:58;;;;;;;;;;;20.70;31.50;;;;;;4098000;28;19918;-84
2023/06/03 12:46:19;;;;;;;;;;;20.70;31.80;;;;;;4093603;28;20021;-84
2023/06/03 12:48:56;;;;;;;;;;;20.70;32.60;;;;;;4106382;28;19918;-85
2023/06/03 12:51:32;;;;;;;;;;;20.70;33.10;;;;;;4094264;28;19926;-85
2023/06/03 12:53:55;;;;;;;;;;;20.80;33.40;;;;;;4088205;28;19927;-84
2023/06/03 12:56:16;;;;;;;;;;;20.90;33.10;;;;;;4103436;28;19918;-85
2023/06/03 12:58:37;;;;;;;;;;;20.90;33.30;;;;;;4097570;28;19919;-85
2023/06/03 13:00:58;;;;;;;;;;;21.00;32.10;;;;;;4093261;28;19923;-87
2023/06/03 13:03:19;;;;;;;;;;;21.00;32.00;;;;;;4110260;28;19929;-84
2023/06/03 13:05:41;;;;;;;;;;;21.00;32.30;;;;;;4106773;28;19922;-86
2023/06/03 13:08:02;;;;;;;;;;;21.10;32.50;;;;;;4095718;28;19925;-84
2023/06/03 13:10:22;;;;;;;;;;;21.10;32.40;;;;;;4102148;28;19988;-84
2023/06/03 13:12:44;;;;;;;;;;;21.10;32.90;;;;;;4088956;28;20774;-84
2023/06/03 13:15:11;;;;;;;;;;;21.10;32.40;;;;;;4103131;28;19938;-87
2023/06/03 13:17:33;;;;;;;;;;;21.10;33.20;;;;;;4110137;28;19941;-85
2023/06/03 13:19:54;;;;;;;;;;;21.10;33.20;;;;;;4090123;28;20010;-84
2023/06/03 13:22:16;;;;;;;;;;;21.10;33.20;;;;;;4100467;28;20550;-86
2023/06/03 13:24:37;;;;;;;;;;;21.10;33.20;;;;;;4103951;28;19924;-87
2023/06/03 13:26:58;;;;;;;;;;;21.20;33.40;;;;;;4092957;28;20539;-85
2023/06/03 13:29:19;;;;;;;;;;;21.20;33.20;;;;;;4101801;28;19946;-86
2023/06/03 13:31:40;;;;;;;;;;;21.20;33.20;;;;;;4091283;28;19927;-86
2023/06/03 13:34:01;;;;;;;;;;;21.20;33.20;;;;;;4092324;28;19918;-86
2023/06/03 13:36:24;;;;;;;;;;;21.20;33.30;;;;;;4104409;28;20330;-85
2023/06/03 13:38:48;;;;;;;;;;;21.20;33.40;;;;;;4103032;28;19925;-87
2023/06/03 13:41:08;;;;;;;;;;;21.20;32.90;;;;;;4105495;28;19920;-85
2023/06/03 13:43:32;;;;;;;;;;;21.30;32.80;;;;;;4103019;28;19922;-85
2023/06/03 13:45:53;;;;;;;;;;;21.30;32.80;;;;;;4098494;28;19923;-85
2023/06/03 13:48:14;;;;;;;;;;;21.30;32.70;;;;;;4101667;28;19995;-85
2023/06/03 13:50:35;;;;;;;;;;;21.30;32.50;;;;;;4102464;28;20558;-86
2023/06/03 13:52:55;;;;;;;;;;;21.20;32.60;;;;;;4089647;28;19922;-86
2023/06/03 13:55:16;;;;;;;;;;;21.20;32.50;;;;;;4091013;28;19993;-86
2023/06/03 13:57:37;;;;;;;;;;;21.20;32.40;;;;;;4100970;28;20454;-85